OKBO2: North Canadian River at Britton Rd at OKC, OK

                                SHEF ID:       OKBO2     North Canadian River at Britton
STATION TYPE:

STAGE RIV-FLOW WTR-TEMP DIS-OXY CONDUCT BAT-LOAD
ft cfs F mg/l umho/cm volt
Ccp-Rev Ccp-Rev Ccp-Rev Ccp-Rev Ccp-Rev Ccp-Rev
(America/Chicago)
07/13 00:00 5.67 189 83.05 6.63 281 11.98
07/13 01:00 5.60 172 82.40 6.37 283 11.96
07/13 02:00 5.54 159 81.82 6.17 286 11.94
07/13 03:00 5.49 148 81.28 6.00 291 11.92
07/13 04:00 5.46 142 80.71 5.87 295 11.91
07/13 05:00 5.43 136 80.15 5.77 302 11.90
07/13 06:00 5.40 130 79.57 5.72 305 11.89
07/13 07:00 5.38 126 79.09 5.74 313 11.88
07/13 08:00 5.38 126 78.84 5.89 320 12.57
07/13 09:00 5.38 126 79.07 6.29 329 12.94
07/13 10:00 5.38 126 79.74 6.79 338 12.75
07/13 11:00 5.38 126 81.12 7.38 349 12.77
07/13 12:00 5.39 128 82.71 8.01 363 12.67
07/13 13:00 5.40 130 84.52 8.77 366 12.53
07/13 14:00 5.39 128 86.29 9.53 378 12.50
07/13 15:00 5.37 124 87.57 10.16 396 12.45
07/13 16:00 5.37 124 89.29 11.00 397 12.46
07/13 17:00 5.36 122 90.18 11.37 402 12.38
07/13 18:00 5.35 120 90.63 11.45 410 12.42
07/13 19:00 5.33 117 90.61 11.04 388 12.40
07/13 20:00 5.31 113 89.82 10.14 394 12.32
07/13 21:00 5.29 109 89.13 9.20 403 12.17
07/13 22:00 5.27 106 88.32 8.27 401 12.03
07/13 23:00 5.24 101 87.48 7.56 401 11.98
Data processed at Tue 14Jul2026 04:25 GMT

NOTICE: If you are parsing this page

Please convert to using our Data API. Starting early 2026 we will be migrating to: https://water.usace.army.mil with modern pages rendered in JavaScript. When this migration completes you will no longer be able to scrape this page! CWMSDataAPI (CDA)

Timeseries IDs (TSIDs)

TSIDs used from left to right in the data table
OKC3.Stage.Inst.1Hour.0.Ccp-Rev
OKC3.Flow.Inst.1Hour.0.Ccp-Rev
OKC3.Temp-Water.Inst.1Hour.0.Ccp-Rev
OKC3.Conc-DO.Inst.1Hour.0.Ccp-Rev
OKC3.Cond-Water.Inst.1Hour.0.Ccp-Rev
OKC3.Volt-Battery Load.Inst.1Hour.0.Ccp-Rev

                            

All information presented herein is the property of the government of the United States of America and may be revised or deleted at any time without prior notice. Dissemination of this information without the expressed written consent of the Public Affairs Office, Tulsa District U.S. Army Corps of Engineers is strictly prohibited. These data are gathered electronically and, as presented, have NOT undergone any form of quality control. These data are NOT guaranteed to be valid or correct.